Time;durP1;ratioP1;P1;durP2;ratioP2;P2;SDS_P1;SDS_P2;PMS_P1;PMS_P2;Temp;Humidity;BMP_temperature;BMP_pressure;BME280_temperature;BME280_humidity;BME280_pressure;Samples;Min_cycle;Max_cycle;Signal;HPM_P1;HPM_P2
2023/04/22 00:00:37;;;;;;;7.13;5.15;;;24.40;99.90;;;;;;5024080;22;20061;-46
2023/04/22 00:03:03;;;;;;;8.65;5.32;;;24.40;99.90;;;;;;5015232;28;20546;-46
2023/04/22 00:05:29;;;;;;;9.20;5.22;;;24.40;99.90;;;;;;5014780;28;20018;-46
2023/04/22 00:07:55;;;;;;;6.25;5.07;;;24.40;99.90;;;;;;5014984;28;20025;-46
2023/04/22 00:10:20;;;;;;;7.40;4.97;;;24.40;99.90;;;;;;5015107;28;20022;-46
2023/04/22 00:12:46;;;;;;;7.95;5.60;;;24.40;99.90;;;;;;5014650;28;20026;-46
2023/04/22 00:15:12;;;;;;;8.55;5.88;;;24.40;99.90;;;;;;5014940;28;20022;-46
2023/04/22 00:17:39;;;;;;;10.32;6.25;;;24.40;99.90;;;;;;5001732;28;20022;-46
2023/04/22 00:20:06;;;;;;;8.27;5.80;;;24.40;99.90;;;;;;5014812;28;20030;-45
2023/04/22 00:22:32;;;;;;;9.38;5.93;;;24.40;99.90;;;;;;5014810;28;20022;-46
2023/04/22 00:24:58;;;;;;;7.55;5.38;;;24.40;99.90;;;;;;5014630;28;20133;-46
2023/04/22 00:27:23;;;;;;;8.27;5.53;;;24.40;99.90;;;;;;5014387;28;20037;-46
2023/04/22 00:29:49;;;;;;;10.50;6.20;;;24.30;99.90;;;;;;4997206;28;20018;-46
2023/04/22 00:32:15;;;;;;;8.70;5.88;;;24.30;99.90;;;;;;5014611;28;20034;-46
2023/04/22 00:34:41;;;;;;;7.90;5.50;;;24.30;99.90;;;;;;5014188;28;20026;-46
2023/04/22 00:37:06;;;;;;;9.68;5.70;;;24.30;99.90;;;;;;5014550;28;20076;-46
2023/04/22 00:39:32;;;;;;;8.25;5.72;;;24.30;99.90;;;;;;5013692;28;20076;-46
2023/04/22 00:42:00;;;;;;;8.52;6.28;;;24.30;99.90;;;;;;5014233;28;20040;-46
2023/04/22 00:44:27;;;;;;;9.50;6.07;;;24.30;99.90;;;;;;5014384;28;20022;-46
2023/04/22 00:46:53;;;;;;;8.15;6.30;;;24.30;99.90;;;;;;5014481;28;20471;-46
2023/04/22 00:49:19;;;;;;;9.00;5.82;;;24.30;99.90;;;;;;5013953;28;20029;-46
2023/04/22 00:51:45;;;;;;;9.98;6.90;;;24.30;99.90;;;;;;5014456;28;20022;-46
2023/04/22 00:54:11;;;;;;;8.90;6.45;;;24.30;99.90;;;;;;5014213;28;20498;-46
2023/04/22 00:56:38;;;;;;;8.85;6.28;;;24.30;99.90;;;;;;5014047;28;20040;-46
2023/04/22 00:59:10;;;;;;;9.90;6.70;;;24.30;99.90;;;;;;4996625;28;20030;-46
2023/04/22 01:01:36;;;;;;;9.82;7.28;;;24.30;99.90;;;;;;4996758;28;20559;-46
2023/04/22 01:04:03;;;;;;;8.85;6.35;;;24.30;99.90;;;;;;5013692;28;20049;-46
2023/04/22 01:06:31;;;;;;;7.80;6.07;;;24.30;99.90;;;;;;5014160;28;20480;-46
2023/04/22 01:08:57;;;;;;;9.48;6.82;;;24.30;99.90;;;;;;5013681;28;20018;-46
2023/04/22 01:11:24;;;;;;;8.88;6.28;;;24.20;99.90;;;;;;5013654;28;20018;-46
2023/04/22 01:13:50;;;;;;;10.63;6.88;;;24.20;99.90;;;;;;5013629;28;20056;-46
2023/04/22 01:16:17;;;;;;;9.38;6.75;;;24.30;99.90;;;;;;5013977;28;20022;-46
2023/04/22 01:18:42;;;;;;;9.80;7.50;;;24.30;99.90;;;;;;5013799;28;20025;-46
2023/04/22 01:21:08;;;;;;;8.13;6.43;;;24.30;99.90;;;;;;4995771;28;20053;-46
2023/04/22 01:23:34;;;;;;;10.68;6.95;;;24.20;99.90;;;;;;5013775;28;20030;-46
2023/04/22 01:26:00;;;;;;;8.43;6.40;;;24.20;99.90;;;;;;5013042;28;20029;-46
2023/04/22 01:28:27;;;;;;;8.93;6.43;;;24.20;99.90;;;;;;5013275;28;20028;-46
2023/04/22 01:30:54;;;;;;;10.23;6.25;;;24.20;99.90;;;;;;5013563;28;20018;-46
2023/04/22 01:33:19;;;;;;;8.90;6.80;;;24.20;99.90;;;;;;5013670;28;20026;-46
2023/04/22 01:35:45;;;;;;;9.43;6.82;;;24.20;99.90;;;;;;5013153;28;20372;-46
2023/04/22 01:38:12;;;;;;;11.73;7.57;;;24.20;99.90;;;;;;5013244;28;20100;-45
2023/04/22 01:40:38;;;;;;;12.27;7.27;;;24.20;99.90;;;;;;4995198;28;20033;-46
2023/04/22 01:43:04;;;;;;;8.82;6.15;;;24.20;99.90;;;;;;5013293;28;20471;-46
2023/04/22 01:45:30;;;;;;;9.10;6.38;;;24.20;99.90;;;;;;4995811;28;20490;-46
2023/04/22 01:47:56;;;;;;;11.43;7.40;;;24.20;99.90;;;;;;5012935;28;20022;-46
2023/04/22 01:50:22;;;;;;;8.85;6.72;;;24.10;99.90;;;;;;5012431;28;20022;-47
2023/04/22 01:52:48;;;;;;;10.80;8.00;;;24.20;99.90;;;;;;5012994;28;20021;-46
2023/04/22 01:55:14;;;;;;;9.48;6.82;;;24.10;99.90;;;;;;5013127;28;20030;-46
2023/04/22 01:57:40;;;;;;;9.35;6.43;;;24.20;99.90;;;;;;5012951;28;20049;-46
2023/04/22 02:00:08;;;;;;;10.75;6.30;;;24.10;99.90;;;;;;5013415;28;20053;-46
2023/04/22 02:02:34;;;;;;;9.68;6.63;;;24.10;99.90;;;;;;5012823;28;20105;-46
2023/04/22 02:05:00;;;;;;;9.82;6.80;;;24.10;99.90;;;;;;5012588;28;20038;-46
2023/04/22 02:07:26;;;;;;;9.98;6.97;;;24.10;99.90;;;;;;5012622;28;20109;-45
2023/04/22 02:09:51;;;;;;;9.52;7.10;;;24.10;99.90;;;;;;5012887;28;20029;-46
2023/04/22 02:12:17;;;;;;;11.50;7.55;;;24.10;99.90;;;;;;5012582;28;20436;-46
2023/04/22 02:14:43;;;;;;;11.15;7.50;;;24.10;99.90;;;;;;4999757;28;20018;-46
2023/04/22 02:17:09;;;;;;;10.50;7.97;;;24.10;99.90;;;;;;5012711;28;20022;-46
2023/04/22 02:19:35;;;;;;;10.25;6.90;;;24.10;99.90;;;;;;5012311;28;20455;-46
2023/04/22 02:22:01;;;;;;;11.77;7.55;;;24.10;99.90;;;;;;5012737;28;20040;-46
2023/04/22 02:24:26;;;;;;;10.80;7.13;;;24.10;99.90;;;;;;5013061;28;20018;-46
2023/04/22 02:26:52;;;;;;;8.70;6.22;;;24.10;99.90;;;;;;5012503;28;20029;-46
2023/04/22 02:29:18;;;;;;;10.93;8.07;;;24.10;99.90;;;;;;5012616;28;20105;-46
2023/04/22 02:31:44;;;;;;;11.15;7.63;;;24.10;99.90;;;;;;5012437;28;20026;-46
2023/04/22 02:34:09;;;;;;;9.68;7.20;;;24.10;99.90;;;;;;5012204;28;20094;-46
2023/04/22 02:36:35;;;;;;;10.02;7.18;;;24.10;99.90;;;;;;5012545;28;20014;-46
2023/04/22 02:39:02;;;;;;;11.68;7.47;;;24.10;99.90;;;;;;5012261;28;20386;-46
2023/04/22 02:41:28;;;;;;;10.65;8.00;;;24.10;99.90;;;;;;5009480;28;20034;-46
2023/04/22 02:43:54;;;;;;;10.13;7.65;;;24.10;99.90;;;;;;5012309;28;20101;-46
2023/04/22 02:46:19;;;;;;;9.90;7.15;;;24.10;99.90;;;;;;5012417;28;20032;-46
2023/04/22 02:48:45;;;;;;;8.90;7.07;;;24.10;99.90;;;;;;5012150;28;20020;-46
2023/04/22 02:51:11;;;;;;;9.55;6.82;;;24.10;99.90;;;;;;5012124;28;20014;-46
2023/04/22 02:53:37;;;;;;;8.77;6.57;;;24.10;99.90;;;;;;5012071;28;20025;-46
2023/04/22 02:56:03;;;;;;;9.57;7.13;;;24.10;99.90;;;;;;5011931;28;20022;-46
2023/04/22 02:58:29;;;;;;;9.88;7.15;;;24.10;99.90;;;;;;5012268;28;20439;-47
2023/04/22 03:00:56;;;;;;;10.60;7.25;;;24.00;99.90;;;;;;5012294;28;20133;-46
2023/04/22 03:03:22;;;;;;;10.38;7.18;;;24.10;99.90;;;;;;5017859;28;20033;-46
2023/04/22 03:05:48;;;;;;;10.13;6.50;;;24.10;99.90;;;;;;5018501;28;20558;-46
2023/04/22 03:08:14;;;;;;;11.57;7.70;;;24.10;99.90;;;;;;5018657;28;20053;-46
2023/04/22 03:10:40;;;;;;;9.23;6.90;;;24.00;99.90;;;;;;5018623;28;20049;-47
2023/04/22 03:13:05;;;;;;;8.52;6.97;;;24.00;99.90;;;;;;5018282;28;20364;-46
2023/04/22 03:15:31;;;;;;;10.60;7.68;;;24.00;99.90;;;;;;5018625;28;20033;-45
2023/04/22 03:17:57;;;;;;;11.30;8.02;;;24.00;99.90;;;;;;5018554;28;20029;-45
2023/04/22 03:20:22;;;;;;;9.60;7.30;;;24.00;99.90;;;;;;5018593;28;20029;-46
2023/04/22 03:22:48;;;;;;;9.57;7.70;;;24.00;99.90;;;;;;5018711;28;20419;-46
2023/04/22 03:25:14;;;;;;;10.75;8.00;;;24.00;99.90;;;;;;5018385;28;20089;-46
2023/04/22 03:27:40;;;;;;;10.73;8.00;;;24.00;99.90;;;;;;5018141;28;20026;-46
2023/04/22 03:30:06;;;;;;;11.20;8.23;;;24.00;99.90;;;;;;5018479;28;20018;-47
2023/04/22 03:32:32;;;;;;;12.73;8.13;;;24.00;99.90;;;;;;5017978;28;20029;-46
2023/04/22 03:34:58;;;;;;;10.45;7.68;;;24.00;99.90;;;;;;5018260;28;20022;-46
2023/04/22 03:37:24;;;;;;;10.90;8.18;;;24.00;99.90;;;;;;5018399;28;20483;-45
2023/04/22 03:39:50;;;;;;;9.52;7.93;;;24.00;99.90;;;;;;5018473;28;20454;-46
2023/04/22 03:42:16;;;;;;;11.48;8.77;;;23.90;99.90;;;;;;5018313;28;20026;-46
2023/04/22 03:44:41;;;;;;;11.30;8.60;;;24.00;99.90;;;;;;5018367;28;20045;-46
2023/04/22 03:47:07;;;;;;;9.55;7.57;;;24.00;99.90;;;;;;5018335;28;20041;-46
2023/04/22 03:49:33;;;;;;;10.68;8.25;;;24.00;99.90;;;;;;5017965;28;20040;-46
2023/04/22 03:51:59;;;;;;;11.40;7.85;;;23.90;99.90;;;;;;5017972;28;20431;-46
2023/04/22 03:54:26;;;;;;;10.85;8.70;;;23.90;99.90;;;;;;5018316;28;20508;-46
2023/04/22 03:56:51;;;;;;;11.88;7.93;;;23.90;99.90;;;;;;5018330;28;20479;-46
2023/04/22 04:01:46;;;;;;;12.05;8.48;;;23.90;99.90;;;;;;4988610;28;20069;-49
2023/04/22 04:04:12;;;;;;;10.98;8.18;;;23.90;99.90;;;;;;4995385;28;20512;-50
2023/04/22 04:06:38;;;;;;;12.02;8.30;;;23.90;99.90;;;;;;4988274;28;20054;-50
2023/04/22 04:09:04;;;;;;;11.10;8.15;;;23.90;99.90;;;;;;4998483;28;20483;-50
2023/04/22 04:11:30;;;;;;;10.43;8.55;;;23.90;99.90;;;;;;4998630;28;20022;-50
2023/04/22 04:13:56;;;;;;;11.77;8.80;;;23.90;99.90;;;;;;4995928;28;20034;-50
2023/04/22 04:16:22;;;;;;;13.00;8.77;;;23.90;99.90;;;;;;4995678;28;20022;-50
2023/04/22 04:18:50;;;;;;;11.55;8.23;;;23.90;99.90;;;;;;4995394;28;20026;-50
2023/04/22 04:21:17;;;;;;;11.70;8.85;;;23.90;99.90;;;;;;4994931;28;20188;-50
2023/04/22 04:23:43;;;;;;;10.50;8.02;;;23.90;99.90;;;;;;4984299;28;20030;-49
2023/04/22 04:26:09;;;;;;;11.10;7.88;;;23.90;99.90;;;;;;4993184;28;20416;-50
2023/04/22 04:28:35;;;;;;;11.02;8.45;;;23.90;99.90;;;;;;4994783;28;20024;-50
2023/04/22 04:31:04;;;;;;;10.90;8.02;;;23.90;99.90;;;;;;4994790;28;20387;-50
2023/04/22 04:33:33;;;;;;;9.60;7.65;;;23.90;99.90;;;;;;4995138;28;20056;-52
2023/04/22 04:35:59;;;;;;;12.63;7.97;;;23.90;99.90;;;;;;4994439;28;20491;-50
2023/04/22 04:38:25;;;;;;;10.55;7.93;;;23.90;99.90;;;;;;4995145;28;20026;-50
2023/04/22 04:40:52;;;;;;;10.70;8.02;;;23.90;99.90;;;;;;4994135;28;20377;-50
2023/04/22 04:43:18;;;;;;;10.93;7.90;;;23.80;99.90;;;;;;4994941;28;20053;-51
2023/04/22 04:45:47;;;;;;;15.90;8.10;;;23.90;99.90;;;;;;4994398;28;20034;-50
2023/04/22 04:48:14;;;;;;;11.55;8.05;;;23.80;99.90;;;;;;4994821;28;20033;-50
2023/04/22 04:50:43;;;;;;;13.88;8.40;;;23.90;99.90;;;;;;4994610;28;20021;-49
2023/04/22 04:53:09;;;;;;;12.88;8.02;;;23.80;99.90;;;;;;4994821;28;20028;-50
2023/04/22 04:55:35;;;;;;;10.30;7.85;;;23.80;99.90;;;;;;4994419;28;20085;-49
2023/04/22 04:58:01;;;;;;;11.68;8.45;;;23.80;99.90;;;;;;4994402;28;20488;-50
2023/04/22 05:00:27;;;;;;;9.20;7.07;;;23.80;99.90;;;;;;4994409;28;20081;-49
2023/04/22 05:02:53;;;;;;;10.73;8.23;;;23.80;99.90;;;;;;4994336;28;20022;-50
2023/04/22 05:05:19;;;;;;;12.95;8.15;;;23.80;99.90;;;;;;4994360;28;20064;-50
2023/04/22 05:07:44;;;;;;;14.40;8.02;;;23.80;99.90;;;;;;4994300;28;20022;-49
2023/04/22 05:10:11;;;;;;;10.65;7.10;;;23.80;99.90;;;;;;4993490;28;20027;-50
2023/04/22 05:12:37;;;;;;;12.38;8.32;;;23.80;99.90;;;;;;4992896;28;20037;-51
2023/04/22 05:15:03;;;;;;;12.40;7.60;;;23.80;99.90;;;;;;4994239;28;20147;-49
2023/04/22 05:17:29;;;;;;;10.77;7.05;;;23.80;99.90;;;;;;4994538;28;20018;-49
2023/04/22 05:19:55;;;;;;;11.23;7.22;;;23.80;99.90;;;;;;4994412;28;20029;-49
2023/04/22 05:22:21;;;;;;;10.63;7.50;;;23.80;99.90;;;;;;4994246;28;20034;-50
2023/04/22 05:24:46;;;;;;;12.52;7.30;;;23.80;99.90;;;;;;4993634;28;20025;-51
2023/04/22 05:27:12;;;;;;;9.48;6.90;;;23.80;99.90;;;;;;4993083;28;20030;-50
2023/04/22 05:29:38;;;;;;;10.18;7.30;;;23.70;99.90;;;;;;4994055;28;20098;-50
2023/04/22 05:32:05;;;;;;;10.90;7.15;;;23.80;99.90;;;;;;4993845;28;20104;-50
2023/04/22 05:34:31;;;;;;;9.75;6.38;;;23.70;99.90;;;;;;4993621;28;20033;-50
2023/04/22 05:36:57;;;;;;;11.00;7.53;;;23.80;99.90;;;;;;4994239;28;20023;-49
2023/04/22 05:39:22;;;;;;;9.13;7.43;;;23.70;99.90;;;;;;4993765;28;20353;-50
2023/04/22 05:41:48;;;;;;;10.45;6.75;;;23.70;99.90;;;;;;4986368;28;20491;-50
2023/04/22 05:44:14;;;;;;;8.80;6.15;;;23.70;99.90;;;;;;4988063;28;20023;-50
2023/04/22 05:46:40;;;;;;;11.30;7.28;;;23.70;99.90;;;;;;4993536;28;20431;-49
2023/04/22 05:49:05;;;;;;;8.25;6.43;;;23.70;99.90;;;;;;4993585;28;20023;-50
2023/04/22 05:51:31;;;;;;;9.50;7.10;;;23.70;99.90;;;;;;4993717;28;20054;-51
2023/04/22 05:53:57;;;;;;;12.32;6.63;;;23.70;99.90;;;;;;4993609;28;20076;-50
2023/04/22 05:56:23;;;;;;;9.70;6.28;;;23.70;99.90;;;;;;4993297;28;20486;-50
2023/04/22 05:58:49;;;;;;;9.15;6.43;;;23.70;99.90;;;;;;4993699;28;20109;-51
2023/04/22 06:01:14;;;;;;;7.15;5.85;;;23.70;99.90;;;;;;4993062;28;20457;-50
2023/04/22 06:03:40;;;;;;;10.23;6.80;;;23.70;99.90;;;;;;4993342;28;20491;-50
2023/04/22 06:06:06;;;;;;;15.45;7.50;;;23.70;99.90;;;;;;4993088;28;20153;-50
2023/04/22 06:08:32;;;;;;;12.45;6.97;;;23.70;99.90;;;;;;4993322;28;20464;-48
2023/04/22 06:10:58;;;;;;;8.65;6.13;;;23.70;99.90;;;;;;4993214;28;20033;-51
2023/04/22 06:13:24;;;;;;;8.32;6.43;;;23.70;99.90;;;;;;4993160;28;20424;-50
2023/04/22 06:15:50;;;;;;;8.90;6.15;;;23.70;99.90;;;;;;4980441;28;20023;-48
2023/04/22 06:18:15;;;;;;;8.63;5.85;;;23.70;99.90;;;;;;4986616;28;20465;-48
2023/04/22 06:20:41;;;;;;;8.23;5.75;;;23.70;99.90;;;;;;4986172;28;20484;-50
2023/04/22 06:23:07;;;;;;;8.88;6.15;;;23.70;99.90;;;;;;4993001;28;20019;-49
2023/04/22 06:25:33;;;;;;;11.10;6.93;;;23.70;99.90;;;;;;4992643;28;20436;-49
2023/04/22 06:27:59;;;;;;;7.88;5.45;;;23.70;99.90;;;;;;4992574;28;20021;-49
2023/04/22 06:30:25;;;;;;;9.00;5.88;;;23.70;99.90;;;;;;4992590;28;20022;-49
2023/04/22 06:32:52;;;;;;;10.97;6.07;;;23.70;99.90;;;;;;4992963;28;20022;-48
2023/04/22 06:35:18;;;;;;;9.63;6.88;;;23.70;99.90;;;;;;4992589;28;20030;-48
2023/04/22 06:37:43;;;;;;;7.40;5.95;;;23.70;99.90;;;;;;4992599;28;20041;-50
2023/04/22 06:40:10;;;;;;;7.07;5.43;;;23.70;99.90;;;;;;4992848;28;20022;-49
2023/04/22 06:42:35;;;;;;;8.45;5.85;;;23.70;99.90;;;;;;4992048;28;20460;-50
2023/04/22 06:45:03;;;;;;;9.73;6.28;;;23.70;99.90;;;;;;4989063;28;20022;-55
2023/04/22 06:47:29;;;;;;;7.18;5.28;;;23.70;99.90;;;;;;4992633;28;20469;-49
2023/04/22 06:49:54;;;;;;;9.00;5.57;;;23.70;99.90;;;;;;4992610;28;20049;-48
2023/04/22 06:52:20;;;;;;;8.23;5.40;;;23.70;99.90;;;;;;4992592;28;20030;-49
2023/04/22 06:54:46;;;;;;;6.97;5.82;;;23.70;99.90;;;;;;4992619;28;20072;-49
2023/04/22 06:57:12;;;;;;;7.43;5.90;;;23.70;99.90;;;;;;4992560;28;20026;-49
2023/04/22 06:59:38;;;;;;;7.97;6.13;;;23.70;99.90;;;;;;4992126;28;20375;-49
2023/04/22 07:02:04;;;;;;;11.65;5.30;;;23.70;99.90;;;;;;4985202;28;20042;-49
2023/04/22 07:04:30;;;;;;;8.73;5.65;;;23.70;99.90;;;;;;4987332;28;20050;-50
2023/04/22 07:06:57;;;;;;;11.60;5.55;;;23.70;99.90;;;;;;4990993;28;20116;-49
2023/04/22 07:09:23;;;;;;;11.27;5.75;;;23.70;99.90;;;;;;4992485;28;20098;-49
2023/04/22 07:11:49;;;;;;;9.05;5.63;;;23.70;99.90;;;;;;4992129;28;20022;-50
2023/04/22 07:14:14;;;;;;;7.95;5.53;;;23.70;99.90;;;;;;4992428;28;20037;-50
2023/04/22 07:16:40;;;;;;;8.23;5.25;;;23.70;99.90;;;;;;4978282;28;20049;-50
2023/04/22 07:19:06;;;;;;;7.50;5.30;;;23.70;99.90;;;;;;4991912;28;20428;-50
2023/04/22 07:21:32;;;;;;;7.95;5.40;;;23.70;99.90;;;;;;4992142;28;20361;-50
2023/04/22 07:23:58;;;;;;;9.05;5.35;;;23.70;99.90;;;;;;4965114;28;20488;-49
2023/04/22 07:26:24;;;;;;;7.53;5.13;;;23.70;99.90;;;;;;4986696;28;20085;-50
2023/04/22 07:28:50;;;;;;;7.32;5.30;;;23.70;99.90;;;;;;4971627;28;20031;-50
2023/04/22 07:31:16;;;;;;;8.30;5.03;;;23.80;99.90;;;;;;4987796;28;20114;-50
2023/04/22 07:33:42;;;;;;;7.57;5.10;;;23.70;99.90;;;;;;4992376;28;20090;-50
2023/04/22 07:36:08;;;;;;;8.32;5.25;;;23.70;99.90;;;;;;4991802;28;20022;-50
2023/04/22 07:38:33;;;;;;;6.93;5.50;;;23.80;99.90;;;;;;4992470;28;20073;-50
2023/04/22 07:40:59;;;;;;;7.63;4.95;;;23.80;99.90;;;;;;4990728;28;20030;-50
2023/04/22 07:43:25;;;;;;;9.80;5.47;;;23.80;99.90;;;;;;4990547;28;20388;-50
2023/04/22 07:45:51;;;;;;;12.18;6.78;;;23.80;99.90;;;;;;4992210;28;20473;-50
2023/04/22 07:48:16;;;;;;;8.35;5.95;;;23.80;99.90;;;;;;4992100;28;20476;-50
2023/04/22 07:50:42;;;;;;;8.10;5.72;;;23.80;99.90;;;;;;4995387;28;20030;-50
2023/04/22 07:53:09;;;;;;;8.50;5.78;;;23.80;99.90;;;;;;4995490;28;20097;-50
2023/04/22 07:55:35;;;;;;;10.00;6.18;;;23.80;99.90;;;;;;4995931;28;20054;-50
2023/04/22 07:58:05;;;;;;;7.28;5.32;;;23.80;99.90;;;;;;4982374;28;20026;-50
2023/04/22 08:00:34;;;;;;;9.18;5.53;;;23.80;99.90;;;;;;4995294;28;20059;-50
2023/04/22 08:03:01;;;;;;;7.53;5.60;;;23.80;99.90;;;;;;4995590;28;20027;-50
2023/04/22 08:05:27;;;;;;;9.70;6.37;;;23.90;99.90;;;;;;4995564;28;20030;-50
2023/04/22 08:07:53;;;;;;;8.40;5.72;;;23.90;99.90;;;;;;4995467;28;20525;-51
2023/04/22 08:10:18;;;;;;;8.15;5.75;;;23.90;99.90;;;;;;4995483;28;20033;-51
2023/04/22 08:12:44;;;;;;;9.07;6.35;;;23.90;99.90;;;;;;4994861;28;20041;-51
2023/04/22 08:15:11;;;;;;;9.93;6.65;;;23.90;99.90;;;;;;4995489;28;20038;-50
2023/04/22 08:17:37;;;;;;;8.50;6.25;;;23.90;99.90;;;;;;4995073;28;20117;-49
2023/04/22 08:20:04;;;;;;;9.85;6.53;;;23.90;99.90;;;;;;4995398;28;20491;-49
2023/04/22 08:22:30;;;;;;;8.53;6.47;;;23.90;99.90;;;;;;4995276;28;20476;-50
2023/04/22 08:24:57;;;;;;;11.07;6.75;;;23.90;99.90;;;;;;4995034;28;20424;-52
2023/04/22 08:27:23;;;;;;;9.52;6.68;;;23.90;99.90;;;;;;4993875;28;20026;-51
2023/04/22 08:29:49;;;;;;;9.45;6.50;;;23.90;99.90;;;;;;4995018;28;20170;-51
2023/04/22 08:32:15;;;;;;;10.10;7.78;;;23.90;99.90;;;;;;4995290;28;20472;-51
2023/04/22 08:34:41;;;;;;;10.07;7.10;;;23.90;99.90;;;;;;4991139;28;20043;-51
2023/04/22 08:37:07;;;;;;;10.05;7.53;;;24.00;99.90;;;;;;4987046;28;20058;-51
2023/04/22 08:39:33;;;;;;;10.02;7.05;;;23.90;99.90;;;;;;4994728;28;20373;-52
2023/04/22 08:41:59;;;;;;;10.10;7.22;;;23.90;99.90;;;;;;4994645;28;20187;-51
2023/04/22 08:44:25;;;;;;;10.80;7.65;;;24.00;99.90;;;;;;4994639;28;20026;-51
2023/04/22 08:46:52;;;;;;;12.00;6.67;;;24.00;99.90;;;;;;4994911;28;20110;-51
2023/04/22 08:49:18;;;;;;;9.63;7.43;;;24.00;99.90;;;;;;4992924;28;20780;-50
2023/04/22 08:51:44;;;;;;;9.23;6.80;;;24.00;99.90;;;;;;4993553;28;20027;-51
2023/04/22 08:54:11;;;;;;;11.00;7.38;;;24.00;99.90;;;;;;4994761;28;20077;-50
2023/04/22 08:56:41;;;;;;;8.70;6.90;;;24.00;99.90;;;;;;4994482;28;20018;-49
2023/04/22 08:59:08;;;;;;;11.88;8.15;;;24.00;99.90;;;;;;4994675;28;20161;-50
2023/04/22 09:01:34;;;;;;;8.98;6.55;;;24.00;99.90;;;;;;4994000;28;20046;-49
2023/04/22 09:04:01;;;;;;;9.85;6.65;;;24.00;99.90;;;;;;4994269;28;20401;-49
2023/04/22 09:06:28;;;;;;;8.43;6.67;;;24.00;99.90;;;;;;4994035;28;20112;-50
2023/04/22 09:08:54;;;;;;;10.32;6.80;;;24.00;99.90;;;;;;4994374;28;20101;-50
2023/04/22 09:11:20;;;;;;;8.90;6.57;;;24.00;99.90;;;;;;4993898;28;20030;-50
2023/04/22 09:13:46;;;;;;;11.80;7.55;;;24.00;99.90;;;;;;4992740;28;20019;-49
2023/04/22 09:16:12;;;;;;;9.40;6.88;;;24.00;99.90;;;;;;4994042;28;20033;-49
2023/04/22 09:18:46;;;;;;;10.38;7.85;;;24.00;99.90;;;;;;4994325;28;20057;-49
2023/04/22 09:21:13;;;;;;;11.45;7.20;;;24.00;99.90;;;;;;4993762;28;20046;-50
2023/04/22 09:23:50;;;;;;;10.00;6.68;;;24.00;99.90;;;;;;4994488;28;20022;-50
2023/04/22 09:26:20;;;;;;;11.55;7.78;;;24.10;99.90;;;;;;4994020;28;20459;-50
2023/04/22 09:28:51;;;;;;;10.75;7.82;;;24.10;99.90;;;;;;4976614;28;20027;-50
2023/04/22 09:31:17;;;;;;;10.60;7.50;;;24.10;99.90;;;;;;4993613;28;20472;-51
2023/04/22 09:33:50;;;;;;;12.20;8.27;;;24.10;99.90;;;;;;4993842;28;20038;-50
2023/04/22 09:36:16;;;;;;;9.00;6.55;;;24.10;99.90;;;;;;4981797;28;20474;-50
2023/04/22 09:38:52;;;;;;;11.38;6.97;;;24.10;99.90;;;;;;4992674;28;20030;-50
2023/04/22 09:41:18;;;;;;;9.35;7.35;;;24.10;99.90;;;;;;4993390;28;20034;-50
2023/04/22 09:43:44;;;;;;;9.05;7.28;;;24.10;99.90;;;;;;4993461;28;20032;-49
2023/04/22 09:46:10;;;;;;;8.82;7.15;;;24.10;99.90;;;;;;4992410;28;20038;-50
2023/04/22 09:48:43;;;;;;;10.73;6.93;;;24.10;99.90;;;;;;4993322;28;20027;-49
2023/04/22 09:51:16;;;;;;;9.65;6.10;;;24.10;99.90;;;;;;4980738;28;20214;-50
2023/04/22 09:53:42;;;;;;;8.32;6.50;;;24.10;99.90;;;;;;4993680;28;20023;-50
2023/04/22 09:56:08;;;;;;;8.40;6.30;;;24.20;99.90;;;;;;4992503;28;20044;-50
2023/04/22 09:58:38;;;;;;;9.77;7.13;;;24.10;99.90;;;;;;4982094;28;20038;-50
2023/04/22 10:01:04;;;;;;;12.68;6.72;;;24.20;99.90;;;;;;4991943;28;20097;-49
2023/04/22 10:03:30;;;;;;;8.65;5.95;;;24.20;99.90;;;;;;4983044;28;20015;-49
2023/04/22 10:05:57;;;;;;;6.70;5.43;;;24.20;99.90;;;;;;4990822;28;20022;-50
2023/04/22 10:08:23;;;;;;;8.40;5.68;;;24.20;99.90;;;;;;4993263;28;20027;-50
2023/04/22 10:10:49;;;;;;;9.43;5.75;;;24.20;99.90;;;;;;4992997;28;20100;-50
2023/04/22 10:13:15;;;;;;;8.48;5.53;;;24.20;99.90;;;;;;4992312;28;20105;-50
2023/04/22 10:15:59;;;;;;;8.57;6.78;;;24.20;99.90;;;;;;4992996;28;20026;-50
2023/04/22 10:18:27;;;;;;;8.80;6.18;;;24.30;99.90;;;;;;4991865;28;20384;-50
2023/04/22 10:20:56;;;;;;;8.50;5.80;;;24.30;99.90;;;;;;4992659;28;20026;-51
2023/04/22 10:23:23;;;;;;;7.13;5.57;;;24.30;99.90;;;;;;4993230;28;20098;-50
2023/04/22 10:25:52;;;;;;;;;;;24.30;99.90;;;;;;4992981;28;20031;-51
2023/04/22 10:28:20;;;;;;;8.80;5.25;;;24.40;99.90;;;;;;4992725;28;19913;-51
2023/04/22 10:30:47;;;;;;;8.50;5.95;;;24.40;99.90;;;;;;4992778;28;20061;-51
2023/04/22 10:33:32;;;;;;;8.63;5.88;;;24.40;99.90;;;;;;4993243;28;20105;-50
2023/04/22 10:36:26;;;;;;;6.85;5.50;;;24.30;99.90;;;;;;4992306;28;20097;-50
2023/04/22 10:38:52;;;;;;;8.23;6.03;;;24.30;99.90;;;;;;4993049;28;20428;-49
2023/04/22 10:41:27;;;;;;;9.13;6.45;;;24.40;99.90;;;;;;4992787;28;20061;-50
2023/04/22 10:43:58;;;;;;;10.38;6.35;;;24.40;99.90;;;;;;4992544;28;20033;-50
2023/04/22 10:46:38;;;;;;;10.50;6.20;;;24.40;99.90;;;;;;4992796;28;20022;-50
2023/04/22 10:49:19;;;;;;;13.60;7.28;;;24.40;99.90;;;;;;4990801;28;20027;-50
2023/04/22 10:51:58;;;;;;;12.25;6.70;;;24.40;99.90;;;;;;4992636;28;20076;-50
2023/04/22 10:57:21;;;;;;;11.65;6.72;;;24.40;99.90;;;;;;4992326;28;20030;-51
2023/04/22 10:59:56;;;;;;;9.45;6.82;;;24.50;99.90;;;;;;4989534;28;20030;-51
2023/04/22 11:02:23;;;;;;;11.65;7.05;;;24.50;99.90;;;;;;4991482;28;20030;-51
2023/04/22 11:04:53;;;;;;;9.82;6.90;;;24.50;99.90;;;;;;4980209;28;20050;-51
2023/04/22 11:07:25;;;;;;;9.25;6.93;;;24.50;99.90;;;;;;4992256;28;20408;-50
2023/04/22 11:09:57;;;;;;;8.57;6.72;;;24.50;99.90;;;;;;4985277;28;20425;-50
2023/04/22 11:12:38;;;;;;;10.80;7.22;;;24.50;99.90;;;;;;4986043;28;20109;-50
2023/04/22 11:15:07;;;;;;;14.07;7.35;;;24.50;99.90;;;;;;4990944;28;20468;-50
2023/04/22 11:17:33;;;;;;;11.27;6.97;;;24.50;99.90;;;;;;4990859;28;20034;-50
2023/04/22 11:20:00;;;;;;;9.82;6.53;;;24.60;99.90;;;;;;4991921;28;20022;-50
2023/04/22 11:22:26;;;;;;;8.65;5.85;;;24.60;99.90;;;;;;4992360;28;20034;-50
2023/04/22 11:24:59;;;;;;;7.40;5.85;;;24.60;99.90;;;;;;4996376;28;20022;-50
2023/04/22 11:27:26;;;;;;;10.20;6.35;;;24.60;99.90;;;;;;4995554;28;20033;-51
2023/04/22 11:30:11;;;;;;;9.57;6.43;;;24.60;99.90;;;;;;4996305;28;20023;-50
2023/04/22 11:32:43;;;;;;;11.50;6.70;;;24.60;99.90;;;;;;4996073;28;20416;-49
2023/04/22 11:35:11;;;;;;;9.35;5.97;;;24.60;99.90;;;;;;4995868;28;20026;-50
2023/04/22 11:38:01;;;;;;;12.35;6.10;;;24.60;99.90;;;;;;4996121;28;20073;-50
2023/04/22 11:40:33;;;;;;;11.32;6.35;;;24.60;99.90;;;;;;4995817;28;20117;-50
2023/04/22 11:43:01;;;;;;;7.50;5.28;;;24.70;99.90;;;;;;4995730;28;20034;-50
2023/04/22 11:45:28;;;;;;;8.82;5.55;;;24.60;99.90;;;;;;4995985;28;20101;-50
2023/04/22 11:47:55;;;;;;;8.50;4.75;;;24.70;99.90;;;;;;4965897;28;20113;-54
2023/04/22 11:50:23;;;;;;;7.43;5.22;;;24.70;99.90;;;;;;4994564;28;20034;-50
2023/04/22 11:52:53;;;;;;;6.90;4.82;;;24.70;99.90;;;;;;4995613;28;20030;-50
2023/04/22 11:55:23;;;;;;;8.25;5.22;;;24.70;99.90;;;;;;4995639;28;20018;-49
2023/04/22 11:57:55;;;;;;;8.60;5.22;;;24.70;99.90;;;;;;4982676;28;20240;-49
2023/04/22 12:00:22;;;;;;;10.10;4.82;;;24.70;99.90;;;;;;4995396;28;20054;-50
2023/04/22 12:03:01;;;;;;;5.70;4.50;;;24.70;99.90;;;;;;4995733;28;20022;-50
2023/04/22 12:05:39;;;;;;;7.15;5.05;;;24.70;99.90;;;;;;4995418;28;20058;-50
2023/04/22 12:08:10;;;;;;;7.72;4.82;;;24.70;99.90;;;;;;4995569;28;20018;-50
2023/04/22 12:10:44;;;;;;;8.05;4.70;;;24.70;99.90;;;;;;4994294;28;20052;-50
2023/04/22 12:13:20;;;;;;;10.30;4.93;;;24.70;99.90;;;;;;4994308;28;20018;-50
2023/04/22 12:15:47;;;;;;;11.03;5.43;;;24.80;99.90;;;;;;4995510;28;20550;-49
2023/04/22 12:18:13;;;;;;;6.43;4.43;;;24.80;99.90;;;;;;4995365;28;20101;-50
2023/04/22 12:20:40;;;;;;;7.57;5.03;;;24.80;99.90;;;;;;4994872;28;20126;-50
2023/04/22 12:23:13;;;;;;;5.77;3.90;;;24.80;99.90;;;;;;4989390;28;20081;-50
2023/04/22 12:25:39;;;;;;;7.50;4.32;;;24.80;99.90;;;;;;4989246;28;20033;-50
2023/04/22 12:28:05;;;;;;;7.13;5.45;;;24.80;99.90;;;;;;4994967;28;20508;-50
2023/04/22 12:30:31;;;;;;;6.18;4.97;;;24.90;99.90;;;;;;4995273;28;20101;-49
2023/04/22 12:32:56;;;;;;;5.30;4.28;;;24.90;99.90;;;;;;4994659;28;20014;-49
2023/04/22 12:35:22;;;;;;;8.25;4.57;;;24.90;99.90;;;;;;4994229;28;20022;-50
2023/04/22 12:37:48;;;;;;;8.27;4.80;;;24.90;99.90;;;;;;4994961;28;20026;-49
2023/04/22 12:40:14;;;;;;;10.68;5.03;;;24.90;99.90;;;;;;4994031;28;20030;-49
2023/04/22 12:42:40;;;;;;;8.60;4.57;;;24.90;99.90;;;;;;4979086;28;20058;-49
2023/04/22 12:45:06;;;;;;;8.00;4.35;;;25.00;99.90;;;;;;4994987;28;20030;-49
2023/04/22 12:47:32;;;;;;;6.05;4.63;;;25.00;99.90;;;;;;4994294;28;20118;-49